createdAt,value
2023-05-21T00:02:00.350Z,51.67
2023-05-21T00:04:30.196Z,51.58
2023-05-21T00:07:00.424Z,51.51
2023-05-21T00:09:27.433Z,51.49
2023-05-21T00:11:54.475Z,51.37
2023-05-21T00:14:21.954Z,51.55
2023-05-21T00:16:49.523Z,51.77
2023-05-21T00:19:17.215Z,51.93
2023-05-21T00:21:46.056Z,51.94
2023-05-21T00:24:13.515Z,52.02
2023-05-21T00:26:40.855Z,51.74
2023-05-21T00:29:08.239Z,51.68
2023-05-21T00:31:35.535Z,51.80
2023-05-21T00:34:02.848Z,51.79
2023-05-21T00:36:31.894Z,51.64
2023-05-21T00:45:11.830Z,51.52
2023-05-21T00:47:39.481Z,51.32
2023-05-21T00:50:07.202Z,51.45
2023-05-21T00:52:42.166Z,51.50
2023-05-21T00:55:10.278Z,51.34
2023-05-21T00:57:37.483Z,51.33
2023-05-21T01:00:09.252Z,51.55
2023-05-21T01:02:37.546Z,51.41
2023-05-21T01:05:08.881Z,51.50
2023-05-21T01:07:36.945Z,51.63
2023-05-21T01:10:04.923Z,51.56
2023-05-21T01:12:32.787Z,51.70
2023-05-21T01:15:01.050Z,51.86
2023-05-21T01:17:29.023Z,51.94
2023-05-21T01:19:57.936Z,52.06
2023-05-21T01:22:25.396Z,52.15
2023-05-21T01:24:55.780Z,52.16
2023-05-21T01:27:23.246Z,52.36
2023-05-21T01:29:51.220Z,52.46
2023-05-21T01:32:28.117Z,52.66
2023-05-21T01:35:10.805Z,52.75
2023-05-21T01:37:45.976Z,52.87
2023-05-21T01:40:39.530Z,52.93
2023-05-21T01:43:07.101Z,53.17
2023-05-21T01:45:34.671Z,53.05
2023-05-21T01:48:02.057Z,53.10
2023-05-21T01:50:29.760Z,53.00
2023-05-21T01:53:01.403Z,53.11
2023-05-21T01:55:31.184Z,53.26
2023-05-21T01:58:01.972Z,53.29
2023-05-21T02:00:31.216Z,53.51
2023-05-21T02:02:58.985Z,53.74
2023-05-21T02:05:26.367Z,53.99
2023-05-21T02:07:55.106Z,54.31
2023-05-21T02:10:22.975Z,54.73
2023-05-21T02:12:50.350Z,55.13
2023-05-21T02:15:19.499Z,56.05
2023-05-21T02:17:47.114Z,56.45
2023-05-21T02:20:14.800Z,57.16
2023-05-21T02:22:43.916Z,57.68
2023-05-21T02:25:12.190Z,57.81
2023-05-21T02:27:40.033Z,58.17
2023-05-21T02:30:10.986Z,58.53
2023-05-21T02:32:39.957Z,58.75
2023-05-21T02:35:07.582Z,58.86
2023-05-21T02:37:35.163Z,59.05
2023-05-21T02:40:04.306Z,59.16
2023-05-21T02:42:31.989Z,59.35
2023-05-21T02:44:59.349Z,59.50
2023-05-21T02:47:26.672Z,59.71
2023-05-21T02:49:54.124Z,59.87
2023-05-21T02:52:24.305Z,59.99
2023-05-21T02:54:52.327Z,60.16
2023-05-21T02:57:19.686Z,60.25
2023-05-21T02:59:46.814Z,60.28
2023-05-21T03:02:14.045Z,60.61
2023-05-21T03:04:46.704Z,60.86
2023-05-21T03:07:15.258Z,61.04
2023-05-21T03:09:44.470Z,61.63
2023-05-21T03:12:11.793Z,62.34
2023-05-21T03:14:39.711Z,62.97
2023-05-21T03:17:08.030Z,63.78
2023-05-21T03:19:36.241Z,63.96
2023-05-21T03:22:04.810Z,64.43
2023-05-21T03:24:35.469Z,65.43
2023-05-21T03:27:03.408Z,66.43
2023-05-21T03:29:31.382Z,66.98
2023-05-21T03:31:58.968Z,67.33
2023-05-21T03:34:26.335Z,68.04
2023-05-21T03:36:53.921Z,68.41
2023-05-21T03:39:21.485Z,68.60
2023-05-21T03:41:49.189Z,68.74
2023-05-21T03:44:22.072Z,68.73
2023-05-21T03:46:53.511Z,68.63
2023-05-21T03:49:24.486Z,68.75
2023-05-21T03:51:52.514Z,68.46
2023-05-21T03:54:20.062Z,68.18
2023-05-21T03:56:47.727Z,68.14
2023-05-21T03:59:15.072Z,67.80
2023-05-21T04:01:43.084Z,67.73
2023-05-21T04:04:12.413Z,67.33
2023-05-21T04:06:42.546Z,66.48
2023-05-21T04:09:10.413Z,66.21
2023-05-21T04:11:37.764Z,66.02
2023-05-21T04:14:05.024Z,65.58
2023-05-21T04:16:35.108Z,65.82
2023-05-21T04:19:02.342Z,65.51
2023-05-21T04:21:29.984Z,65.05
2023-05-21T04:23:58.067Z,64.90
2023-05-21T04:34:29.229Z,64.13
2023-05-21T04:36:56.291Z,63.43
2023-05-21T04:39:24.952Z,63.09
2023-05-21T04:41:54.165Z,62.45
2023-05-21T04:44:20.839Z,62.64
2023-05-21T04:46:48.590Z,62.38
2023-05-21T04:49:15.155Z,62.26
2023-05-21T04:51:41.732Z,61.87
2023-05-21T04:54:08.299Z,61.16
2023-05-21T04:56:35.273Z,60.53
2023-05-21T04:59:05.298Z,59.61
2023-05-21T05:01:34.745Z,59.73
2023-05-21T05:04:01.354Z,59.88
2023-05-21T05:06:28.019Z,58.99
2023-05-21T05:08:56.682Z,59.58
2023-05-21T05:11:23.548Z,59.69
2023-05-21T05:13:50.788Z,59.87
2023-05-21T05:16:17.684Z,58.92
2023-05-21T05:18:45.960Z,58.51
2023-05-21T05:21:12.737Z,57.55
2023-05-21T05:23:39.249Z,57.06
2023-05-21T05:26:07.069Z,56.52
2023-05-21T05:28:34.034Z,54.34
2023-05-21T05:31:01.401Z,53.10
2023-05-21T05:33:28.485Z,51.25
2023-05-21T05:35:55.122Z,49.68
2023-05-21T05:38:22.588Z,48.43
2023-05-21T05:40:49.019Z,48.19
2023-05-21T05:43:15.821Z,48.09
2023-05-21T05:45:43.266Z,46.07
2023-05-21T05:48:16.802Z,45.55
2023-05-21T05:50:44.473Z,45.86
2023-05-21T05:53:12.856Z,44.98
2023-05-21T05:55:40.386Z,43.33
2023-05-21T05:58:07.173Z,43.28
2023-05-21T06:00:42.646Z,43.19
2023-05-21T06:03:09.301Z,42.93
2023-05-21T06:05:36.151Z,42.64
2023-05-21T06:08:02.930Z,43.45
2023-05-21T06:10:29.599Z,43.02
2023-05-21T06:12:56.212Z,42.61
2023-05-21T06:15:22.697Z,43.35
2023-05-21T06:17:49.150Z,44.18
2023-05-21T06:20:16.819Z,44.44
2023-05-21T06:22:44.001Z,44.72
2023-05-21T06:25:10.957Z,45.16
2023-05-21T06:27:38.428Z,45.29
2023-05-21T06:30:08.421Z,45.91
2023-05-21T06:32:37.129Z,46.41
2023-05-21T06:35:05.019Z,46.70
2023-05-21T06:37:32.018Z,46.78
2023-05-21T06:39:58.424Z,47.01
2023-05-21T06:42:25.463Z,47.25
2023-05-21T06:44:59.179Z,47.81
2023-05-21T06:47:29.732Z,48.08
2023-05-21T06:49:56.356Z,48.70
2023-05-21T06:52:23.821Z,49.01
2023-05-21T06:54:50.840Z,49.24
2023-05-21T06:57:18.429Z,49.64
2023-05-21T06:59:44.884Z,49.75
2023-05-21T07:02:11.354Z,49.56
2023-05-21T07:04:38.210Z,49.58
2023-05-21T07:07:05.226Z,50.02
2023-05-21T07:09:32.109Z,50.27
2023-05-21T07:11:59.085Z,51.01
2023-05-21T07:14:26.325Z,51.10
2023-05-21T07:16:53.514Z,51.48
2023-05-21T07:19:20.774Z,51.48
2023-05-21T07:21:48.778Z,51.04
2023-05-21T07:24:15.302Z,51.20
2023-05-21T07:26:42.498Z,51.11
2023-05-21T07:29:10.665Z,51.42
2023-05-21T07:31:38.329Z,51.23
2023-05-21T07:34:05.762Z,51.27
2023-05-21T07:36:33.444Z,51.41
2023-05-21T07:39:00.639Z,51.35
2023-05-21T07:41:28.305Z,51.77
2023-05-21T07:43:56.399Z,52.44
2023-05-21T07:46:23.233Z,52.43
2023-05-21T07:48:52.272Z,52.76
2023-05-21T07:51:18.807Z,52.78
2023-05-21T07:53:45.508Z,52.94
2023-05-21T07:56:13.389Z,52.75
2023-05-21T07:58:41.094Z,53.03
2023-05-21T08:01:07.771Z,53.03
2023-05-21T08:03:35.618Z,53.21
2023-05-21T08:06:03.310Z,53.62
2023-05-21T08:08:30.602Z,53.72
2023-05-21T08:10:57.502Z,54.15
2023-05-21T08:13:25.546Z,54.73
2023-05-21T08:15:53.373Z,55.06
2023-05-21T08:18:25.110Z,55.07
2023-05-21T08:20:53.833Z,55.28
2023-05-21T08:23:20.849Z,55.43
2023-05-21T08:25:50.750Z,55.13
2023-05-21T08:28:17.717Z,55.21
2023-05-21T08:30:44.148Z,55.30
2023-05-21T08:33:11.093Z,54.91
2023-05-21T08:35:38.796Z,54.97
2023-05-21T08:38:27.039Z,55.21
2023-05-21T08:40:58.519Z,54.83
2023-05-21T08:43:27.102Z,54.56
2023-05-21T08:45:54.801Z,54.12
2023-05-21T08:48:23.782Z,54.29
2023-05-21T08:50:51.936Z,54.23
2023-05-21T08:53:28.272Z,53.99
2023-05-21T08:55:56.829Z,53.09
2023-05-21T08:58:25.554Z,52.78
2023-05-21T09:00:54.252Z,53.07
2023-05-21T09:03:22.647Z,52.95
2023-05-21T09:05:49.253Z,53.39
2023-05-21T09:08:18.391Z,53.53
2023-05-21T09:10:52.099Z,53.87
2023-05-21T09:13:21.199Z,53.76
2023-05-21T09:15:48.655Z,53.56
2023-05-21T09:18:15.905Z,53.91
2023-05-21T09:20:49.284Z,53.89
2023-05-21T09:23:17.112Z,54.09
2023-05-21T09:25:48.276Z,53.99
2023-05-21T09:28:21.595Z,54.02
2023-05-21T09:30:51.789Z,54.38
2023-05-21T09:33:25.896Z,54.45
2023-05-21T09:35:52.941Z,54.75
2023-05-21T09:38:22.192Z,54.88
2023-05-21T09:40:48.899Z,55.02
2023-05-21T09:43:16.783Z,55.38
2023-05-21T09:45:54.047Z,55.23
2023-05-21T09:48:39.035Z,55.63
2023-05-21T09:51:08.071Z,55.51
2023-05-21T09:53:34.900Z,55.68
2023-05-21T09:56:01.558Z,55.35
2023-05-21T09:58:29.378Z,55.40
2023-05-21T10:00:56.373Z,55.40
2023-05-21T10:03:23.241Z,55.47
2023-05-21T10:05:51.125Z,55.09
2023-05-21T10:08:18.657Z,54.82
2023-05-21T10:10:45.315Z,54.61
2023-05-21T10:13:12.371Z,54.78
2023-05-21T10:15:50.145Z,53.01
2023-05-21T10:18:17.841Z,53.01
2023-05-21T10:20:44.344Z,53.31
2023-05-21T10:23:10.779Z,53.77
2023-05-21T10:25:37.488Z,54.47
2023-05-21T10:28:06.405Z,54.19
2023-05-21T10:30:34.115Z,54.12
2023-05-21T10:33:01.561Z,53.83
2023-05-21T10:35:28.175Z,53.60
2023-05-21T10:37:55.248Z,53.57
2023-05-21T10:40:21.754Z,53.70
2023-05-21T10:43:07.222Z,53.64
2023-05-21T10:46:10.199Z,53.55
2023-05-21T10:48:50.580Z,52.70
2023-05-21T10:51:21.968Z,52.03
2023-05-21T10:54:01.432Z,51.58
2023-05-21T10:57:01.199Z,51.70
2023-05-21T10:59:56.820Z,50.64
2023-05-21T11:02:26.175Z,50.54
2023-05-21T11:04:59.606Z,49.96
2023-05-21T11:07:55.786Z,50.47
2023-05-21T11:10:39.918Z,49.82
2023-05-21T11:13:13.395Z,49.70
2023-05-21T11:15:58.785Z,49.42
2023-05-21T11:18:34.606Z,49.21
2023-05-21T11:21:05.648Z,48.80
2023-05-21T11:24:39.331Z,48.87
2023-05-21T11:27:07.263Z,48.72
2023-05-21T11:29:42.450Z,48.77
2023-05-21T11:32:09.853Z,49.28
2023-05-21T11:34:42.117Z,49.72
2023-05-21T11:37:29.219Z,50.17
2023-05-21T11:39:58.253Z,50.21
2023-05-21T11:42:36.441Z,49.30
2023-05-21T11:45:04.376Z,48.78
2023-05-21T11:47:32.742Z,49.32
2023-05-21T11:50:01.470Z,49.99
2023-05-21T11:52:30.300Z,50.16
2023-05-21T11:54:58.376Z,49.32
2023-05-21T11:57:29.261Z,49.17
2023-05-21T11:59:58.651Z,49.39
2023-05-21T12:02:30.033Z,49.56
2023-05-21T12:05:00.810Z,49.46
2023-05-21T12:07:29.869Z,49.87
2023-05-21T12:09:57.317Z,50.52
2023-05-21T12:12:27.178Z,50.29
2023-05-21T12:14:56.493Z,49.87
2023-05-21T12:17:24.780Z,50.17
2023-05-21T12:19:53.759Z,50.14
2023-05-21T12:22:21.101Z,50.03
2023-05-21T12:24:51.260Z,49.39
2023-05-21T12:27:18.556Z,49.79
2023-05-21T12:29:46.871Z,49.38
2023-05-21T12:32:15.003Z,49.56
2023-05-21T12:34:50.073Z,49.90
2023-05-21T12:37:32.904Z,50.02
2023-05-21T12:40:01.368Z,49.75
2023-05-21T12:42:34.984Z,49.35
2023-05-21T12:45:06.639Z,48.83
2023-05-21T12:47:34.520Z,48.52
2023-05-21T12:50:02.482Z,48.51
2023-05-21T12:52:33.285Z,48.54
2023-05-21T12:55:01.278Z,48.59
2023-05-21T12:57:35.876Z,48.07
2023-05-21T13:07:40.015Z,46.86
2023-05-21T13:10:08.116Z,46.89
2023-05-21T13:12:37.209Z,46.95
2023-05-21T13:15:05.384Z,47.37
2023-05-21T13:17:33.098Z,47.48
2023-05-21T13:20:13.960Z,47.11
2023-05-21T13:22:49.146Z,47.15
2023-05-21T13:25:21.535Z,46.64
2023-05-21T13:27:49.794Z,46.48
2023-05-21T13:30:20.069Z,47.30
2023-05-21T13:32:48.065Z,47.90
2023-05-21T13:35:17.378Z,48.01
2023-05-21T13:37:45.407Z,47.97
2023-05-21T13:40:17.295Z,47.91
2023-05-21T13:42:45.807Z,47.28
2023-05-21T13:45:14.190Z,47.16
2023-05-21T13:47:45.498Z,47.19
2023-05-21T13:50:12.895Z,47.85
2023-05-21T13:52:40.357Z,48.12
2023-05-21T13:55:08.206Z,48.68
2023-05-21T13:57:35.614Z,49.62
2023-05-21T14:00:03.429Z,50.33
2023-05-21T14:02:35.645Z,51.08
2023-05-21T14:05:02.940Z,50.94
2023-05-21T14:07:31.157Z,51.09
2023-05-21T14:09:58.586Z,51.11
2023-05-21T14:12:26.879Z,51.21
2023-05-21T14:14:53.963Z,51.56
2023-05-21T14:17:21.339Z,51.64
2023-05-21T14:19:48.682Z,51.72
2023-05-21T14:22:16.389Z,51.62
2023-05-21T14:24:43.743Z,51.47
2023-05-21T14:27:12.592Z,51.38
2023-05-21T14:29:41.202Z,51.48
2023-05-21T14:32:08.598Z,51.43
2023-05-21T14:34:38.642Z,50.82
2023-05-21T14:44:47.860Z,50.11
2023-05-21T14:47:15.120Z,50.00
2023-05-21T14:49:42.358Z,49.84
2023-05-21T14:52:09.613Z,49.78
2023-05-21T14:54:37.683Z,50.18
2023-05-21T14:57:05.153Z,50.80
2023-05-21T14:59:32.522Z,51.83
2023-05-21T15:02:01.047Z,52.37
2023-05-21T15:04:28.576Z,53.33
2023-05-21T15:06:56.136Z,53.86
2023-05-21T15:09:23.465Z,54.11
2023-05-21T15:11:52.974Z,54.31
2023-05-21T15:14:20.939Z,54.35
2023-05-21T15:16:48.280Z,54.33
2023-05-21T15:19:15.889Z,54.59
2023-05-21T15:21:43.427Z,54.48
2023-05-21T15:24:11.600Z,53.91
2023-05-21T15:26:38.838Z,53.31
2023-05-21T15:29:06.928Z,53.83
2023-05-21T15:31:34.164Z,53.97
2023-05-21T15:34:01.318Z,53.22
2023-05-21T15:36:28.895Z,53.11
2023-05-21T15:38:56.210Z,53.14
2023-05-21T15:41:23.419Z,53.09
2023-05-21T15:43:51.292Z,53.24
2023-05-21T15:46:19.537Z,52.94
2023-05-21T15:48:46.777Z,52.63
2023-05-21T15:51:14.455Z,52.64
2023-05-21T15:53:42.556Z,52.76
2023-05-21T15:56:10.215Z,53.72
2023-05-21T15:58:38.050Z,54.14
2023-05-21T16:01:05.194Z,53.82
2023-05-21T16:03:32.982Z,53.95
2023-05-21T16:06:00.390Z,53.68
2023-05-21T16:08:27.676Z,53.56
2023-05-21T16:10:55.124Z,53.95
2023-05-21T16:13:22.172Z,55.49
2023-05-21T16:15:51.167Z,55.73
2023-05-21T16:18:18.719Z,56.05
2023-05-21T16:20:47.450Z,56.20
2023-05-21T16:23:14.833Z,56.84
2023-05-21T16:25:42.017Z,57.38
2023-05-21T16:28:09.962Z,57.91
2023-05-21T16:30:37.112Z,57.97
2023-05-21T16:33:04.413Z,57.42
2023-05-21T16:35:32.242Z,57.31
2023-05-21T16:37:59.991Z,57.07
2023-05-21T16:40:27.561Z,56.41
2023-05-21T16:42:54.836Z,55.88
2023-05-21T16:45:22.317Z,55.67
2023-05-21T16:47:50.723Z,55.30
2023-05-21T16:50:19.560Z,54.88
2023-05-21T16:52:46.816Z,54.40
2023-05-21T16:55:14.108Z,54.15
2023-05-21T16:57:41.384Z,54.09
2023-05-21T17:00:09.361Z,53.96
2023-05-21T17:02:37.119Z,54.03
2023-05-21T17:05:05.362Z,53.96
2023-05-21T17:07:32.920Z,54.03
2023-05-21T17:10:00.413Z,53.97
2023-05-21T17:12:27.874Z,54.05
2023-05-21T17:14:56.670Z,53.92
2023-05-21T17:17:24.193Z,53.93
2023-05-21T17:19:51.529Z,53.78
2023-05-21T17:22:19.587Z,53.74
2023-05-21T17:24:46.753Z,53.78
2023-05-21T17:27:15.081Z,53.97
2023-05-21T17:29:42.753Z,54.18
2023-05-21T17:32:10.315Z,54.33
2023-05-21T17:34:37.595Z,54.53
2023-05-21T17:37:04.991Z,54.85
2023-05-21T17:39:33.890Z,55.07
2023-05-21T23:41:54.366Z,85.04
2023-05-21T23:44:21.123Z,84.80
2023-05-21T23:46:48.239Z,84.61
2023-05-21T23:49:14.764Z,84.55
2023-05-21T23:51:41.360Z,84.42
2023-05-21T23:54:08.197Z,84.65
2023-05-21T23:56:34.781Z,84.83
2023-05-21T23:59:01.727Z,85.05
